createdAt,value
2018-01-24T00:00:05.583Z,981.71
2018-01-24T00:01:05.569Z,981.57
2018-01-24T00:02:05.462Z,981.71
2018-01-24T00:03:05.370Z,981.79
2018-01-24T00:04:05.414Z,981.91
2018-01-24T00:05:05.412Z,981.68
2018-01-24T00:06:05.686Z,981.68
2018-01-24T00:07:05.583Z,981.76
2018-01-24T00:08:05.348Z,981.62
2018-01-24T00:09:05.538Z,981.62
2018-01-24T00:10:10.486Z,981.60
2018-01-24T00:11:05.602Z,981.57
2018-01-24T00:12:05.400Z,981.62
2018-01-24T00:13:05.319Z,981.46
2018-01-24T00:14:05.824Z,981.55
2018-01-24T00:15:05.370Z,981.52
2018-01-24T00:16:05.333Z,981.57
2018-01-24T00:17:05.416Z,981.60
2018-01-24T00:18:05.378Z,981.79
2018-01-24T00:19:05.592Z,981.74
2018-01-24T00:20:05.779Z,981.73
2018-01-24T00:21:05.942Z,981.82
2018-01-24T00:22:05.864Z,981.65
2018-01-24T00:23:06.045Z,981.62
2018-01-24T00:24:05.214Z,981.71
2018-01-24T00:25:05.411Z,981.71
2018-01-24T00:26:05.386Z,981.71
2018-01-24T00:27:05.788Z,981.59
2018-01-24T00:28:06.002Z,981.73
2018-01-24T00:29:05.455Z,981.71
2018-01-24T00:30:05.392Z,981.68
2018-01-24T00:31:05.362Z,981.71
2018-01-24T00:32:06.020Z,981.79
2018-01-24T00:33:05.269Z,981.73
2018-01-24T00:34:05.200Z,981.73
2018-01-24T00:35:06.124Z,981.73
2018-01-24T00:36:05.366Z,981.73
2018-01-24T00:37:05.490Z,981.71
2018-01-24T00:38:05.669Z,981.68
2018-01-24T00:39:05.538Z,981.68
2018-01-24T00:40:05.365Z,981.68
2018-01-24T00:41:05.992Z,981.68
2018-01-24T00:42:05.982Z,981.73
2018-01-24T00:43:05.406Z,981.76
2018-01-24T00:44:05.304Z,981.57
2018-01-24T00:45:05.460Z,981.62
2018-01-24T00:46:05.588Z,981.82
2018-01-24T00:47:05.603Z,981.65
2018-01-24T00:48:05.906Z,981.62
2018-01-24T00:49:05.278Z,981.70
2018-01-24T00:50:05.448Z,981.54
2018-01-24T00:51:06.066Z,981.59
2018-01-24T00:52:05.907Z,981.49
2018-01-24T00:53:05.430Z,981.56
2018-01-24T00:54:05.481Z,981.49
2018-01-24T00:55:05.787Z,981.65
2018-01-24T00:56:05.749Z,981.59
2018-01-24T00:57:05.827Z,981.49
2018-01-24T00:58:05.767Z,981.43
2018-01-24T00:59:05.912Z,981.46
2018-01-24T01:00:05.774Z,981.59
2018-01-24T01:01:06.079Z,981.54
2018-01-24T01:02:06.204Z,981.62
2018-01-24T01:03:05.591Z,981.59
2018-01-24T01:04:05.752Z,981.65
2018-01-24T01:05:05.574Z,981.65
2018-01-24T01:06:05.736Z,981.68
2018-01-24T01:07:05.284Z,981.56
2018-01-24T01:08:05.192Z,981.46
2018-01-24T01:09:05.948Z,981.55
2018-01-24T01:10:06.067Z,981.41
2018-01-24T01:11:05.439Z,981.49
2018-01-24T01:12:05.372Z,981.52
2018-01-24T01:13:05.432Z,981.49
2018-01-24T01:14:05.351Z,981.46
2018-01-24T01:15:05.237Z,981.43
2018-01-24T01:16:05.569Z,981.46
2018-01-24T01:17:05.405Z,981.41
2018-01-24T01:18:05.303Z,981.46
2018-01-24T01:19:05.411Z,981.52
2018-01-24T01:20:05.227Z,981.41
2018-01-24T01:21:10.260Z,981.52
2018-01-24T01:22:05.557Z,981.46
2018-01-24T01:23:05.689Z,981.57
2018-01-24T01:24:05.788Z,981.57
2018-01-24T01:25:05.589Z,981.52
2018-01-24T01:26:05.470Z,981.55
2018-01-24T01:27:05.306Z,981.57
2018-01-24T01:28:05.722Z,981.65
2018-01-24T01:29:05.218Z,981.68
2018-01-24T01:30:05.747Z,981.65
2018-01-24T01:31:05.435Z,981.49
2018-01-24T01:32:05.519Z,981.46
2018-01-24T01:33:05.368Z,981.52
2018-01-24T01:34:05.473Z,981.57
2018-01-24T01:35:05.438Z,981.49
2018-01-24T01:36:05.497Z,981.62
2018-01-24T01:37:06.125Z,981.55
2018-01-24T01:38:06.223Z,981.55
2018-01-24T01:39:05.893Z,981.68
2018-01-24T01:40:05.295Z,981.62
2018-01-24T01:41:05.420Z,981.57
2018-01-24T01:42:05.684Z,981.65
2018-01-24T01:43:05.965Z,981.68
2018-01-24T01:44:05.736Z,981.73
2018-01-24T01:45:05.281Z,981.65
2018-01-24T01:46:05.444Z,981.79
2018-01-24T01:47:05.983Z,981.62
2018-01-24T01:48:05.429Z,981.65
2018-01-24T01:49:05.446Z,981.68
2018-01-24T01:50:05.459Z,981.68
2018-01-24T01:51:06.108Z,981.52
2018-01-24T01:52:05.482Z,981.65
2018-01-24T01:53:05.701Z,981.68
2018-01-24T01:54:06.124Z,981.70
2018-01-24T01:55:05.429Z,981.62
2018-01-24T01:56:05.485Z,981.68
2018-01-24T01:57:05.513Z,981.68
2018-01-24T01:58:05.354Z,981.68
2018-01-24T01:59:05.611Z,981.56
2018-01-24T02:00:05.852Z,981.70
2018-01-24T02:01:05.875Z,981.54
2018-01-24T02:02:05.617Z,981.49
2018-01-24T02:03:05.474Z,981.54
2018-01-24T02:04:10.895Z,981.70
2018-01-24T02:05:05.286Z,981.52
2018-01-24T02:06:05.829Z,981.62
2018-01-24T02:07:05.461Z,981.46
2018-01-24T02:08:05.431Z,981.40
2018-01-24T02:09:06.079Z,981.46
2018-01-24T02:10:05.952Z,981.46
2018-01-24T02:11:05.384Z,981.46
2018-01-24T02:12:05.874Z,981.37
2018-01-24T02:13:05.927Z,981.43
2018-01-24T02:14:05.359Z,981.40
2018-01-24T02:15:05.293Z,981.32
2018-01-24T02:16:05.466Z,981.35
2018-01-24T02:17:05.484Z,981.54
2018-01-24T02:18:05.441Z,981.40
2018-01-24T02:19:05.550Z,981.35
2018-01-24T02:20:05.540Z,981.56
2018-01-24T02:21:05.381Z,981.52
2018-01-24T02:22:05.980Z,981.46
2018-01-24T02:23:06.106Z,981.49
2018-01-24T02:24:06.095Z,981.52
2018-01-24T02:25:05.682Z,981.32
2018-01-24T02:26:05.518Z,981.40
2018-01-24T02:27:05.331Z,981.26
2018-01-24T02:28:05.833Z,981.35
2018-01-24T02:29:05.685Z,981.26
2018-01-24T02:30:05.987Z,981.29
2018-01-24T02:31:05.496Z,981.35
2018-01-24T02:32:05.489Z,981.56
2018-01-24T02:33:05.344Z,981.43
2018-01-24T02:34:05.507Z,981.59
2018-01-24T02:35:05.356Z,981.62
2018-01-24T02:36:05.748Z,981.70
2018-01-24T02:37:06.027Z,981.67
2018-01-24T02:38:05.264Z,981.70
2018-01-24T02:39:05.301Z,981.56
2018-01-24T02:40:05.359Z,981.59
2018-01-24T02:41:05.322Z,981.81
2018-01-24T02:42:05.520Z,981.59
2018-01-24T02:43:05.367Z,981.59
2018-01-24T02:44:05.376Z,981.67
2018-01-24T02:45:05.458Z,981.54
2018-01-24T02:46:05.361Z,981.51
2018-01-24T02:47:05.420Z,981.49
2018-01-24T02:48:05.951Z,981.46
2018-01-24T02:49:05.816Z,981.54
2018-01-24T02:50:06.019Z,981.54
2018-01-24T02:51:05.488Z,981.46
2018-01-24T02:52:06.122Z,981.46
2018-01-24T02:53:05.922Z,981.46
2018-01-24T02:54:05.683Z,981.48
2018-01-24T02:55:05.923Z,981.43
2018-01-24T02:56:05.572Z,981.43
2018-01-24T02:57:05.841Z,981.48
2018-01-24T02:58:05.912Z,981.56
2018-01-24T02:59:05.939Z,981.56
2018-01-24T03:00:05.632Z,981.37
2018-01-24T03:01:05.505Z,981.59
2018-01-24T03:02:05.549Z,981.48
2018-01-24T03:03:05.680Z,981.45
2018-01-24T03:04:05.496Z,981.48
2018-01-24T03:05:05.557Z,981.51
2018-01-24T03:06:05.736Z,981.43
2018-01-24T03:07:05.586Z,981.45
2018-01-24T03:08:05.416Z,981.67
2018-01-24T03:09:05.528Z,981.48
2018-01-24T03:10:05.589Z,981.37
2018-01-24T03:11:05.410Z,981.51
2018-01-24T03:12:05.348Z,981.61
2018-01-24T03:13:05.894Z,981.51
2018-01-24T03:14:05.665Z,981.51
2018-01-24T03:15:05.636Z,981.51
2018-01-24T03:16:05.741Z,981.51
2018-01-24T03:17:05.831Z,981.61
2018-01-24T03:18:05.538Z,981.54
2018-01-24T03:19:05.342Z,981.61
2018-01-24T03:20:06.057Z,981.61
2018-01-24T03:21:05.914Z,981.48
2018-01-24T03:22:05.942Z,981.61
2018-01-24T03:23:05.386Z,981.67
2018-01-24T03:24:05.770Z,981.61
2018-01-24T03:25:05.876Z,981.61
2018-01-24T03:26:05.956Z,981.69
2018-01-24T03:27:05.305Z,981.75
2018-01-24T03:28:05.549Z,981.72
2018-01-24T03:29:05.532Z,981.75
2018-01-24T03:30:05.568Z,981.75
2018-01-24T03:31:05.450Z,981.78
2018-01-24T03:32:05.491Z,981.81
2018-01-24T03:33:05.668Z,981.61
2018-01-24T03:34:05.944Z,981.75
2018-01-24T03:35:05.918Z,981.75
2018-01-24T03:36:05.971Z,981.67
2018-01-24T03:37:06.181Z,981.75
2018-01-24T03:38:05.594Z,981.69
2018-01-24T03:39:05.626Z,981.75
2018-01-24T03:40:05.391Z,981.75
2018-01-24T03:41:05.459Z,981.75
2018-01-24T03:42:05.561Z,981.78
2018-01-24T03:43:05.505Z,981.75
2018-01-24T03:44:05.617Z,981.53
2018-01-24T03:45:05.548Z,981.69
2018-01-24T03:46:05.537Z,981.61
2018-01-24T03:47:05.456Z,981.53
2018-01-24T03:48:05.441Z,981.58
2018-01-24T03:49:05.562Z,981.61
2018-01-24T03:50:05.615Z,981.64
2018-01-24T03:51:05.647Z,981.61
2018-01-24T03:52:05.666Z,981.56
2018-01-24T03:53:05.804Z,981.56
2018-01-24T03:54:05.953Z,981.61
2018-01-24T03:55:05.447Z,981.48
2018-01-24T03:56:05.414Z,981.42
2018-01-24T03:57:05.432Z,981.36
2018-01-24T03:58:05.584Z,981.48
2018-01-24T03:59:05.638Z,981.48
2018-01-24T04:00:05.602Z,981.61
2018-01-24T04:01:05.318Z,981.64
2018-01-24T04:02:05.743Z,981.51
2018-01-24T04:03:05.857Z,981.54
2018-01-24T04:04:06.071Z,981.54
2018-01-24T04:05:05.172Z,981.54
2018-01-24T04:06:05.363Z,981.42
2018-01-24T04:07:05.969Z,981.61
2018-01-24T04:08:05.613Z,981.48
2018-01-24T04:09:05.675Z,981.58
2018-01-24T04:10:05.631Z,981.67
2018-01-24T04:11:05.841Z,981.51
2018-01-24T04:12:05.719Z,981.61
2018-01-24T04:13:05.771Z,981.61
2018-01-24T04:14:06.063Z,981.59
2018-01-24T04:15:05.394Z,981.48
2018-01-24T04:16:05.753Z,981.48
2018-01-24T04:17:05.431Z,981.61
2018-01-24T04:18:05.516Z,981.56
2018-01-24T04:19:05.424Z,981.70
2018-01-24T04:20:05.865Z,981.62
2018-01-24T04:21:06.021Z,981.62
2018-01-24T04:22:05.959Z,981.54
2018-01-24T04:23:05.708Z,981.64
2018-01-24T04:24:06.157Z,981.67
2018-01-24T04:25:06.133Z,981.46
2018-01-24T04:26:05.375Z,981.56
2018-01-24T04:27:05.562Z,981.56
2018-01-24T04:28:05.592Z,981.54
2018-01-24T04:29:05.624Z,981.49
2018-01-24T04:30:05.890Z,981.40
2018-01-24T04:31:05.367Z,981.59
2018-01-24T04:32:06.101Z,981.49
2018-01-24T04:33:05.824Z,981.49
2018-01-24T04:34:05.717Z,981.54
2018-01-24T04:35:10.433Z,981.65
2018-01-24T04:36:05.635Z,981.56
2018-01-24T04:37:05.652Z,981.56
2018-01-24T04:38:05.675Z,981.67
2018-01-24T04:39:05.637Z,981.56
2018-01-24T04:40:05.932Z,981.64
2018-01-24T04:41:05.418Z,981.78
2018-01-24T04:42:05.462Z,981.75
2018-01-24T04:43:05.408Z,981.73
2018-01-24T04:44:05.500Z,981.78
2018-01-24T04:45:05.605Z,981.73
2018-01-24T04:46:05.464Z,981.90
2018-01-24T04:47:05.666Z,981.81
2018-01-24T04:48:05.469Z,981.70
2018-01-24T04:49:05.790Z,981.67
2018-01-24T04:50:05.977Z,981.70
2018-01-24T04:51:05.684Z,981.92
2018-01-24T04:52:05.632Z,981.75
2018-01-24T04:53:05.643Z,981.73
2018-01-24T04:54:05.645Z,981.75
2018-01-24T04:55:05.664Z,981.75
2018-01-24T04:56:05.623Z,981.64
2018-01-24T04:57:06.006Z,981.84
2018-01-24T04:58:05.720Z,981.67
2018-01-24T04:59:05.580Z,981.70
2018-01-24T05:00:05.696Z,981.58
2018-01-24T05:01:05.617Z,981.64
2018-01-24T05:02:05.605Z,981.72
2018-01-24T05:03:05.634Z,981.64
2018-01-24T05:04:05.590Z,981.48
2018-01-24T05:05:05.725Z,981.61
2018-01-24T05:06:06.036Z,981.67
2018-01-24T05:07:05.700Z,981.72
2018-01-24T05:08:05.934Z,981.75
2018-01-24T05:09:06.049Z,981.64
2018-01-24T05:10:05.666Z,981.58
2018-01-24T05:11:05.523Z,981.64
2018-01-24T05:12:05.598Z,981.75
2018-01-24T05:13:05.570Z,981.56
2018-01-24T05:14:05.707Z,981.81
2018-01-24T05:15:10.722Z,981.75
2018-01-24T05:16:05.804Z,981.70
2018-01-24T05:17:05.517Z,981.67
2018-01-24T05:18:05.609Z,981.54
2018-01-24T05:19:05.346Z,981.67
2018-01-24T05:20:05.632Z,981.67
2018-01-24T05:21:06.228Z,981.61
2018-01-24T05:22:05.664Z,981.64
2018-01-24T05:23:05.572Z,981.64
2018-01-24T05:24:05.791Z,981.58
2018-01-24T05:25:06.197Z,981.58
2018-01-24T05:26:05.615Z,981.75
2018-01-24T05:27:05.825Z,981.67
2018-01-24T05:28:05.413Z,981.78
2018-01-24T05:29:05.615Z,981.54
2018-01-24T05:30:05.748Z,981.64
2018-01-24T05:31:05.485Z,981.70
2018-01-24T05:32:05.542Z,981.75
2018-01-24T05:33:05.718Z,981.72
2018-01-24T05:34:05.635Z,981.70
2018-01-24T05:35:05.451Z,981.70
2018-01-24T05:36:05.613Z,981.61
2018-01-24T05:37:05.705Z,981.51
2018-01-24T05:38:05.422Z,981.73
2018-01-24T05:39:06.028Z,981.54
2018-01-24T05:40:05.664Z,981.64
2018-01-24T05:41:05.678Z,981.73
2018-01-24T05:42:05.830Z,981.73
2018-01-24T05:43:05.659Z,981.56
2018-01-24T05:44:05.851Z,981.64
2018-01-24T05:45:05.490Z,981.70
2018-01-24T05:46:05.687Z,981.73
2018-01-24T05:47:05.658Z,981.73
2018-01-24T05:48:05.832Z,981.59
2018-01-24T05:49:05.557Z,981.79
2018-01-24T05:50:05.639Z,981.76
2018-01-24T05:51:05.479Z,981.79
2018-01-24T05:52:05.544Z,981.62
2018-01-24T05:53:05.923Z,981.62
2018-01-24T05:54:05.731Z,981.70
2018-01-24T05:55:05.650Z,981.81
2018-01-24T05:56:05.508Z,981.84
2018-01-24T05:57:05.454Z,981.84
2018-01-24T05:58:05.903Z,981.76
2018-01-24T05:59:05.528Z,981.73
2018-01-24T06:00:05.715Z,981.78
2018-01-24T06:01:05.575Z,981.90
2018-01-24T06:02:05.974Z,981.81
2018-01-24T06:03:05.910Z,981.84
2018-01-24T06:04:05.737Z,981.87
2018-01-24T06:05:05.778Z,981.98
2018-01-24T06:06:05.707Z,981.90
2018-01-24T06:07:05.517Z,982.01
2018-01-24T06:08:05.453Z,981.93
2018-01-24T06:09:05.936Z,981.87
2018-01-24T06:10:05.885Z,982.01
2018-01-24T06:11:05.480Z,982.07
2018-01-24T06:12:05.767Z,981.95
2018-01-24T06:13:05.826Z,981.87
2018-01-24T06:14:05.662Z,981.98
2018-01-24T06:15:05.572Z,981.84
2018-01-24T06:16:05.752Z,981.92
2018-01-24T06:17:05.890Z,981.92
2018-01-24T06:18:05.996Z,981.92
2018-01-24T06:19:05.783Z,981.92
2018-01-24T06:20:06.801Z,982.03
2018-01-24T06:21:05.926Z,982.01
2018-01-24T06:22:05.383Z,981.81
2018-01-24T06:23:05.501Z,981.89
2018-01-24T06:24:10.230Z,981.86
2018-01-24T06:25:05.665Z,981.89
2018-01-24T06:26:06.044Z,981.86
2018-01-24T06:27:05.705Z,981.75
2018-01-24T06:28:05.683Z,981.84
2018-01-24T06:29:05.862Z,981.72
2018-01-24T06:30:05.984Z,981.86
2018-01-24T06:31:05.838Z,981.83
2018-01-24T06:32:05.725Z,981.75
2018-01-24T06:33:05.514Z,981.83
2018-01-24T06:34:05.633Z,981.81
2018-01-24T06:35:05.729Z,981.80
2018-01-24T06:36:05.674Z,981.80
2018-01-24T06:37:05.763Z,981.80
2018-01-24T06:38:05.960Z,981.92
2018-01-24T06:39:05.922Z,981.78
2018-01-24T06:40:06.055Z,981.66
2018-01-24T06:41:05.510Z,981.83
2018-01-24T06:42:05.442Z,981.86
2018-01-24T06:43:05.661Z,981.86
2018-01-24T06:44:05.779Z,981.75
2018-01-24T06:45:05.872Z,981.86
2018-01-24T06:46:05.617Z,981.86
2018-01-24T06:47:05.763Z,981.94
2018-01-24T06:48:05.958Z,981.83
2018-01-24T06:49:05.805Z,981.97
2018-01-24T06:50:06.011Z,981.86
2018-01-24T06:51:05.783Z,981.80
2018-01-24T06:52:05.956Z,981.94
2018-01-24T06:53:05.563Z,982.00
2018-01-24T06:54:05.779Z,982.03
2018-01-24T06:55:10.579Z,981.86
2018-01-24T06:56:05.698Z,982.03
2018-01-24T06:57:05.663Z,982.00
2018-01-24T06:58:05.518Z,982.08
2018-01-24T06:59:05.514Z,982.00
2018-01-24T07:00:05.806Z,982.11
2018-01-24T07:01:05.483Z,982.05
2018-01-24T07:02:05.860Z,982.05
2018-01-24T07:03:06.027Z,982.00
2018-01-24T07:04:05.879Z,982.08
2018-01-24T07:05:05.945Z,981.97
2018-01-24T07:06:06.239Z,982.05
2018-01-24T07:07:06.101Z,981.85
2018-01-24T07:08:05.556Z,981.91
2018-01-24T07:09:05.609Z,981.97
2018-01-24T07:10:05.384Z,982.08
2018-01-24T07:11:05.530Z,981.94
2018-01-24T07:12:05.674Z,982.05
2018-01-24T07:13:05.777Z,982.02
2018-01-24T07:14:05.662Z,982.11
2018-01-24T07:15:05.748Z,981.94
2018-01-24T07:16:05.988Z,981.99
2018-01-24T07:17:06.071Z,981.99
2018-01-24T07:18:05.900Z,982.02
2018-01-24T07:19:05.830Z,982.05
2018-01-24T07:20:05.497Z,982.08
2018-01-24T07:21:05.973Z,982.05
2018-01-24T07:22:05.549Z,982.05
2018-01-24T07:23:05.931Z,982.16
2018-01-24T07:24:05.756Z,982.08
2018-01-24T07:25:05.835Z,982.10
2018-01-24T07:26:05.519Z,982.22
2018-01-24T07:27:05.704Z,982.13
2018-01-24T07:28:05.334Z,982.13
2018-01-24T07:29:05.501Z,982.07
2018-01-24T07:30:05.873Z,982.10
2018-01-24T07:31:05.754Z,982.05
2018-01-24T07:32:05.913Z,982.13
2018-01-24T07:33:05.804Z,982.21
2018-01-24T07:34:05.899Z,982.44
2018-01-24T07:35:06.057Z,982.27
2018-01-24T07:36:06.033Z,982.21
2018-01-24T07:37:06.878Z,982.21
2018-01-24T07:38:05.723Z,982.04
2018-01-24T07:39:05.524Z,982.21
2018-01-24T07:40:05.539Z,982.21
2018-01-24T07:41:06.158Z,982.10
2018-01-24T07:42:05.753Z,982.04
2018-01-24T07:43:05.863Z,982.16
2018-01-24T07:44:05.775Z,981.99
2018-01-24T07:45:06.122Z,982.04
2018-01-24T07:46:05.731Z,981.96
2018-01-24T07:47:06.103Z,982.15
2018-01-24T07:48:06.379Z,982.10
2018-01-24T07:49:20.708Z,982.13
2018-01-24T07:50:05.760Z,982.10
2018-01-24T07:51:05.692Z,982.15
2018-01-24T07:52:10.763Z,982.24
2018-01-24T07:53:05.916Z,982.24
2018-01-24T07:54:06.033Z,982.21
2018-01-24T07:55:05.980Z,982.32
2018-01-24T07:56:06.186Z,982.15
2018-01-24T07:57:05.959Z,982.04
2018-01-24T07:58:06.132Z,982.07
2018-01-24T07:59:05.728Z,982.21
2018-01-24T08:00:05.649Z,982.15
2018-01-24T08:01:05.826Z,982.12
2018-01-24T08:02:05.875Z,982.18
2018-01-24T08:03:06.077Z,982.23
2018-01-24T08:04:06.230Z,982.18
2018-01-24T08:05:05.633Z,982.09
2018-01-24T08:06:05.674Z,982.18
2018-01-24T08:07:05.782Z,982.03
2018-01-24T08:08:05.793Z,982.12
2018-01-24T08:09:05.934Z,982.01
2018-01-24T08:10:05.621Z,982.03
2018-01-24T08:11:05.403Z,982.01
2018-01-24T08:12:05.603Z,982.15
2018-01-24T08:13:06.045Z,982.12
2018-01-24T08:14:06.042Z,982.03
2018-01-24T08:15:05.597Z,982.23
2018-01-24T08:16:05.780Z,982.06
2018-01-24T08:17:05.424Z,981.92
2018-01-24T08:18:05.692Z,982.12
2018-01-24T08:19:05.836Z,982.20
2018-01-24T08:20:05.917Z,982.17
2018-01-24T08:21:05.402Z,982.23
2018-01-24T08:22:05.662Z,982.23
2018-01-24T08:23:05.669Z,982.37
2018-01-24T08:24:05.480Z,982.12
2018-01-24T08:25:05.857Z,982.17
2018-01-24T08:26:05.857Z,982.17
2018-01-24T08:27:05.787Z,982.31
2018-01-24T08:28:05.863Z,982.28
2018-01-24T08:29:05.897Z,982.26
2018-01-24T08:30:05.936Z,982.20
2018-01-24T08:31:05.885Z,982.37
2018-01-24T08:32:05.693Z,982.34
2018-01-24T08:33:05.895Z,982.39
2018-01-24T08:34:06.169Z,982.28
2018-01-24T08:35:05.537Z,982.14
2018-01-24T08:36:05.699Z,982.22
2018-01-24T08:37:05.708Z,982.28
2018-01-24T08:38:05.941Z,982.17
2018-01-24T08:39:05.434Z,982.11
2018-01-24T08:40:05.912Z,982.08
2018-01-24T08:41:05.789Z,982.17
2018-01-24T08:42:05.533Z,982.25
2018-01-24T08:43:05.641Z,982.08
2018-01-24T08:44:05.798Z,981.99
2018-01-24T08:45:05.834Z,982.11
2018-01-24T08:46:05.763Z,982.16
2018-01-24T08:47:05.804Z,982.22
2018-01-24T08:48:05.880Z,982.05
2018-01-24T08:49:10.958Z,982.02
2018-01-24T08:50:05.344Z,982.05
2018-01-24T08:51:05.486Z,982.05
2018-01-24T08:52:05.449Z,982.02
2018-01-24T08:53:05.564Z,982.02
2018-01-24T08:54:05.679Z,982.13
2018-01-24T08:55:05.763Z,981.99
2018-01-24T08:56:05.849Z,982.07
2018-01-24T08:57:05.941Z,982.07
2018-01-24T08:58:05.446Z,982.04
2018-01-24T08:59:05.462Z,982.15
2018-01-24T09:00:05.507Z,982.07
2018-01-24T09:01:05.916Z,982.06
2018-01-24T09:02:05.985Z,982.04
2018-01-24T09:03:05.930Z,982.15
2018-01-24T09:04:05.883Z,982.15
2018-01-24T09:05:05.858Z,982.20
2018-01-24T09:06:05.872Z,982.03
2018-01-24T09:07:05.517Z,982.26
2018-01-24T09:08:05.914Z,982.14
2018-01-24T09:09:05.728Z,982.20
2018-01-24T09:10:05.722Z,982.09
2018-01-24T09:11:05.630Z,982.03
2018-01-24T09:12:05.867Z,982.00
2018-01-24T09:13:05.904Z,982.11
2018-01-24T09:14:05.840Z,982.06
2018-01-24T09:15:05.895Z,981.97
2018-01-24T09:16:05.841Z,982.06
2018-01-24T09:17:05.695Z,982.06
2018-01-24T09:18:05.470Z,982.00
2018-01-24T09:19:05.906Z,981.94
2018-01-24T09:20:05.894Z,982.08
2018-01-24T09:21:05.494Z,982.05
2018-01-24T09:22:05.999Z,982.11
2018-01-24T09:23:05.860Z,982.17
2018-01-24T09:24:05.898Z,982.08
2018-01-24T09:25:05.985Z,982.02
2018-01-24T09:26:05.420Z,982.05
2018-01-24T09:27:05.935Z,981.91
2018-01-24T09:28:05.815Z,982.13
2018-01-24T09:29:05.704Z,982.11
2018-01-24T09:30:06.265Z,982.22
2018-01-24T09:31:05.749Z,982.19
2018-01-24T09:32:05.704Z,982.10
2018-01-24T09:33:10.758Z,982.16
2018-01-24T09:34:05.909Z,982.21
2018-01-24T09:35:05.417Z,982.10
2018-01-24T09:36:05.660Z,982.24
2018-01-24T09:37:05.835Z,981.99
2018-01-24T09:38:05.641Z,982.01
2018-01-24T09:39:05.710Z,981.81
2018-01-24T09:40:06.087Z,981.81
2018-01-24T09:41:05.833Z,981.75
2018-01-24T09:42:05.852Z,982.01
2018-01-24T09:43:05.722Z,982.12
2018-01-24T09:44:05.781Z,982.00
2018-01-24T09:45:05.789Z,982.00
2018-01-24T09:46:05.847Z,982.00
2018-01-24T09:47:05.870Z,982.11
2018-01-24T09:48:05.384Z,982.06
2018-01-24T09:49:05.713Z,981.97
2018-01-24T09:50:05.890Z,982.00
2018-01-24T09:51:05.698Z,982.02
2018-01-24T09:52:05.711Z,981.99
2018-01-24T09:53:05.396Z,982.05
2018-01-24T09:54:05.664Z,982.10
2018-01-24T09:55:06.664Z,982.04
2018-01-24T09:56:05.635Z,982.16
2018-01-24T09:57:05.720Z,982.07
2018-01-24T09:58:05.689Z,981.95
2018-01-24T09:59:05.697Z,982.09
2018-01-24T10:00:05.866Z,981.98
2018-01-24T10:01:05.896Z,982.03
2018-01-24T10:02:05.510Z,981.98
2018-01-24T10:03:06.021Z,982.06
2018-01-24T10:04:07.146Z,982.03
2018-01-24T10:05:05.716Z,981.97
2018-01-24T10:06:05.794Z,982.11
2018-01-24T10:07:05.634Z,982.06
2018-01-24T10:08:05.920Z,981.94
2018-01-24T10:09:05.843Z,982.03
2018-01-24T10:10:05.893Z,981.83
2018-01-24T10:11:06.000Z,982.00
2018-01-24T10:12:05.829Z,981.74
2018-01-24T10:13:05.654Z,981.86
2018-01-24T10:14:05.715Z,981.71
2018-01-24T10:15:05.996Z,981.77
2018-01-24T10:16:05.768Z,981.88
2018-01-24T10:17:05.879Z,981.69
2018-01-24T10:18:05.735Z,981.86
2018-01-24T10:19:05.960Z,981.80
2018-01-24T10:20:06.005Z,981.83
2018-01-24T10:21:05.680Z,981.88
2018-01-24T10:22:05.783Z,981.85
2018-01-24T10:23:05.420Z,981.94
2018-01-24T10:24:05.770Z,981.82
2018-01-24T10:25:05.947Z,981.97
2018-01-24T10:26:06.104Z,981.97
2018-01-24T10:27:05.713Z,981.88
2018-01-24T10:28:10.738Z,981.88
2018-01-24T10:29:05.919Z,981.88
2018-01-24T10:30:06.131Z,981.82
2018-01-24T10:31:11.052Z,981.80
2018-01-24T10:32:05.691Z,981.94
2018-01-24T10:33:05.680Z,981.91
2018-01-24T10:34:05.975Z,981.77
2018-01-24T10:35:05.629Z,981.82
2018-01-24T10:36:06.090Z,981.91
2018-01-24T10:37:05.569Z,981.94
2018-01-24T10:38:06.048Z,981.68
2018-01-24T10:39:05.815Z,981.79
2018-01-24T10:40:06.153Z,981.85
2018-01-24T10:41:05.885Z,981.62
2018-01-24T10:42:06.097Z,981.82
2018-01-24T10:43:05.707Z,981.68
2018-01-24T10:44:05.748Z,981.59
2018-01-24T10:45:05.688Z,981.76
2018-01-24T10:46:06.067Z,981.65
2018-01-24T10:47:06.110Z,981.57
2018-01-24T10:48:05.471Z,981.49
2018-01-24T10:49:05.478Z,981.62
2018-01-24T10:50:05.681Z,981.49
2018-01-24T10:51:05.794Z,981.62
2018-01-24T10:52:06.404Z,981.62
2018-01-24T10:53:05.707Z,981.71
2018-01-24T10:54:05.530Z,981.49
2018-01-24T10:55:05.835Z,981.56
2018-01-24T10:56:06.060Z,981.59
2018-01-24T10:57:06.277Z,981.43
2018-01-24T10:58:06.416Z,981.46
2018-01-24T10:59:05.774Z,981.49
2018-01-24T11:00:05.523Z,981.51
2018-01-24T11:01:05.529Z,981.46
2018-01-24T11:02:05.676Z,981.34
2018-01-24T11:03:05.943Z,981.40
2018-01-24T11:04:06.268Z,981.45
2018-01-24T11:05:06.428Z,981.42
2018-01-24T11:06:05.468Z,981.48
2018-01-24T11:07:05.535Z,981.45
2018-01-24T11:08:06.087Z,981.45
2018-01-24T11:09:06.184Z,981.48
2018-01-24T11:10:06.011Z,981.36
2018-01-24T11:11:06.258Z,981.34
2018-01-24T11:12:05.780Z,981.48
2018-01-24T11:13:05.731Z,981.48
2018-01-24T11:14:05.604Z,981.50
2018-01-24T11:15:05.905Z,981.53
2018-01-24T11:16:05.849Z,981.45
2018-01-24T11:17:06.064Z,981.45
2018-01-24T11:18:05.526Z,981.31
2018-01-24T11:19:05.731Z,981.36
2018-01-24T11:20:05.718Z,981.36
2018-01-24T11:21:05.832Z,981.33
2018-01-24T11:22:05.948Z,981.53
2018-01-24T11:23:06.030Z,981.36
2018-01-24T11:24:05.951Z,981.22
2018-01-24T11:25:05.948Z,981.05
2018-01-24T11:26:06.074Z,981.22
2018-01-24T11:27:05.804Z,981.16
2018-01-24T11:28:06.158Z,981.13
2018-01-24T11:29:05.487Z,981.13
2018-01-24T11:30:05.932Z,981.13
2018-01-24T11:31:05.951Z,981.10
2018-01-24T11:32:05.915Z,981.10
2018-01-24T11:33:05.948Z,981.01
2018-01-24T11:34:05.914Z,981.18
2018-01-24T11:35:05.485Z,981.04
2018-01-24T11:36:06.026Z,981.07
2018-01-24T11:37:05.835Z,980.95
2018-01-24T11:38:06.364Z,981.04
2018-01-24T11:39:06.174Z,980.86
2018-01-24T11:40:05.626Z,980.89
2018-01-24T11:41:05.621Z,981.09
2018-01-24T11:42:05.267Z,981.12
2018-01-24T11:43:05.906Z,980.95
2018-01-24T11:44:06.059Z,980.97
2018-01-24T11:45:05.587Z,981.06
2018-01-24T11:46:05.736Z,981.00
2018-01-24T11:47:05.907Z,980.94
2018-01-24T11:48:06.076Z,980.97
2018-01-24T11:49:05.576Z,981.00
2018-01-24T11:50:05.778Z,980.77
2018-01-24T11:51:10.788Z,980.82
2018-01-24T11:52:05.535Z,980.82
2018-01-24T11:53:05.829Z,980.82
2018-01-24T11:54:05.584Z,980.99
2018-01-24T11:55:05.591Z,980.91
2018-01-24T11:56:05.747Z,980.91
2018-01-24T11:57:05.939Z,980.91
2018-01-24T11:58:05.822Z,980.82
2018-01-24T11:59:05.981Z,980.91
2018-01-24T12:00:05.859Z,980.94
2018-01-24T12:01:05.548Z,980.85
2018-01-24T12:02:05.571Z,980.91
2018-01-24T12:03:06.116Z,980.88
2018-01-24T12:04:05.842Z,980.77
2018-01-24T12:05:05.576Z,980.82
2018-01-24T12:06:05.780Z,980.85
2018-01-24T12:07:06.017Z,980.85
2018-01-24T12:08:06.051Z,980.77
2018-01-24T12:09:05.622Z,980.71
2018-01-24T12:10:06.042Z,980.82
2018-01-24T12:11:06.121Z,980.80
2018-01-24T12:12:05.300Z,980.68
2018-01-24T12:13:06.058Z,980.68
2018-01-24T12:14:06.015Z,980.79
2018-01-24T12:15:06.382Z,980.60
2018-01-24T12:16:05.742Z,980.68
2018-01-24T12:17:05.984Z,980.68
2018-01-24T12:18:06.168Z,980.48
2018-01-24T12:19:06.248Z,980.65
2018-01-24T12:20:05.969Z,980.62
2018-01-24T12:21:10.994Z,980.62
2018-01-24T12:22:05.831Z,980.65
2018-01-24T12:23:09.972Z,980.62
2018-01-24T12:24:06.035Z,980.54
2018-01-24T12:25:10.901Z,980.48
2018-01-24T12:26:06.016Z,980.62
2018-01-24T12:27:06.202Z,980.56
2018-01-24T12:28:05.822Z,980.53